Time;durP1;ratioP1;P1;durP2;ratioP2;P2;SDS_P1;SDS_P2;PMS_P1;PMS_P2;Temp;Humidity;BMP_temperature;BMP_pressure;BME280_temperature;BME280_humidity;BME280_pressure;Samples;Min_cycle;Max_cycle;Signal;HPM_P1;HPM_P2
2022/03/28 00:00:39;;;;;;;23.67;10.70;;;;;;;7.47;71.35;102642.66;5109488;28;20028;-55
2022/03/28 00:03:05;;;;;;;26.90;10.68;;;;;;;7.39;71.03;102637.88;5104673;28;20587;-56
2022/03/28 00:05:32;;;;;;;26.88;10.98;;;;;;;7.48;71.04;102644.34;5109792;28;20027;-56
2022/03/28 00:07:57;;;;;;;27.52;11.20;;;;;;;7.47;71.45;102648.81;5109168;28;20109;-56
2022/03/28 00:10:22;;;;;;;22.55;10.70;;;;;;;7.40;72.33;102645.69;5098250;28;20063;-56
2022/03/28 00:12:48;;;;;;;28.42;11.23;;;;;;;7.36;72.68;102643.34;5104164;28;20047;-56
2022/03/28 00:15:13;;;;;;;32.55;11.88;;;;;;;7.21;72.25;102639.88;5108284;28;20027;-56
2022/03/28 00:17:38;;;;;;;25.83;11.05;;;;;;;7.24;72.38;102629.09;5108653;28;20035;-56
2022/03/28 00:20:12;;;;;;;33.92;11.38;;;;;;;7.13;71.84;102612.16;5094695;28;20028;-56
2022/03/28 00:22:39;;;;;;;27.15;10.75;;;;;;;7.17;72.13;102617.25;5106226;28;20523;-56
2022/03/28 00:25:05;;;;;;;25.67;10.10;;;;;;;7.05;72.15;102619.69;5108097;28;20018;-55
2022/03/28 00:27:31;;;;;;;22.10;10.55;;;;;;;6.99;72.77;102615.66;5099518;28;20035;-56
2022/03/28 00:29:56;;;;;;;23.77;9.65;;;;;;;7.06;71.90;102613.47;5101903;28;20043;-56
2022/03/28 00:32:21;;;;;;;22.25;10.32;;;;;;;7.08;72.98;102608.97;5108035;28;20046;-57
2022/03/28 00:34:47;;;;;;;21.20;9.75;;;;;;;7.05;73.29;102606.50;5110370;28;20191;-56
2022/03/28 00:37:12;;;;;;;27.75;10.05;;;;;;;7.00;72.29;102605.94;5109298;28;20378;-56
2022/03/28 00:39:37;;;;;;;25.25;9.50;;;;;;;6.93;72.60;102607.25;5105181;28;20084;-57
2022/03/28 00:42:03;;;;;;;23.90;9.82;;;;;;;6.88;73.48;102599.63;5103428;28;20031;-56
2022/03/28 00:44:32;;;;;;;23.38;10.27;;;;;;;6.84;73.94;102595.47;5102799;28;20043;-56
2022/03/28 00:46:58;;;;;;;29.35;10.13;;;;;;;6.80;74.09;102594.81;5109131;28;20027;-57
2022/03/28 00:49:23;;;;;;;20.52;9.75;;;;;;;6.69;73.90;102592.84;5106295;28;20134;-56
2022/03/28 00:51:49;;;;;;;26.10;11.07;;;;;;;6.71;74.11;102595.41;5105961;28;20126;-56
2022/03/28 00:54:15;;;;;;;26.25;10.45;;;;;;;6.71;74.37;102595.41;5110152;28;20034;-56
2022/03/28 00:56:42;;;;;;;26.65;10.40;;;;;;;6.57;74.42;102583.03;5112911;28;20059;-57
2022/03/28 00:59:07;;;;;;;24.92;10.95;;;;;;;6.45;75.04;102584.59;5097863;28;20035;-56
2022/03/28 01:01:33;;;;;;;21.67;10.23;;;;;;;6.57;74.50;102578.59;5112432;27;20035;-56
2022/03/28 01:03:58;;;;;;;22.33;10.05;;;;;;;6.53;74.13;102586.78;5107635;28;20481;-56
2022/03/28 01:06:23;;;;;;;26.08;10.63;;;;;;;6.40;74.69;102576.13;5099569;28;20048;-56
2022/03/28 01:08:49;;;;;;;23.05;10.55;;;;;;;6.37;75.57;102568.41;5105721;28;20119;-56
2022/03/28 01:11:16;;;;;;;22.15;10.32;;;;;;;6.35;75.33;102567.66;5107039;28;20024;-56
2022/03/28 01:13:42;;;;;;;25.90;10.45;;;;;;;6.25;74.76;102562.06;5103440;28;20039;-56
2022/03/28 01:16:08;;;;;;;25.17;10.73;;;;;;;6.15;75.10;102562.63;5106833;28;20044;-56
2022/03/28 01:18:34;;;;;;;23.83;10.50;;;;;;;6.09;75.15;102567.38;5103104;28;20032;-55
2022/03/28 01:21:01;;;;;;;26.75;10.45;;;;;;;6.13;75.59;102558.38;5098220;28;20481;-56
2022/03/28 01:23:26;;;;;;;25.92;10.65;;;;;;;6.08;76.13;102560.41;5102374;28;20032;-56
2022/03/28 01:25:52;;;;;;;21.73;10.30;;;;;;;6.15;75.93;102552.06;5096936;28;20116;-56
2022/03/28 01:28:23;;;;;;;22.40;10.18;;;;;;;6.21;75.55;102560.56;5100918;28;20096;-56
2022/03/28 01:30:49;;;;;;;24.35;10.40;;;;;;;6.20;75.03;102549.16;5104994;28;20086;-56
2022/03/28 01:33:15;;;;;;;28.17;10.23;;;;;;;6.12;75.09;102536.44;5103419;28;20493;-56
2022/03/28 01:35:42;;;;;;;24.25;10.38;;;;;;;6.11;76.16;102528.66;5108089;28;20831;-56
2022/03/28 01:38:11;;;;;;;30.02;10.32;;;;;;;6.24;75.87;102542.78;5112934;27;20024;-56
2022/03/28 01:40:39;;;;;;;23.05;9.70;;;;;;;6.13;76.00;102527.59;5112916;28;21579;-56
2022/03/28 01:43:04;;;;;;;23.27;10.75;;;;;;;6.07;75.62;102532.38;5111841;28;20188;-56
2022/03/28 01:45:30;;;;;;;20.52;9.15;;;;;;;6.13;76.21;102532.03;5112057;27;20532;-56
2022/03/28 01:47:55;;;;;;;21.85;9.70;;;;;;;6.11;75.24;102528.66;5112055;28;20039;-56
2022/03/28 01:50:21;;;;;;;18.60;8.85;;;;;;;6.01;75.24;102529.13;5102714;28;20039;-56
2022/03/28 01:52:47;;;;;;;19.02;9.45;;;;;;;6.00;74.82;102543.25;5101172;28;20035;-56
2022/03/28 01:55:13;;;;;;;19.70;9.20;;;;;;;5.81;75.15;102535.56;5097233;28;20028;-56
2022/03/28 01:57:40;;;;;;;22.85;9.40;;;;;;;5.68;76.00;102539.84;5108148;28;20164;-56
2022/03/28 02:00:06;;;;;;;23.98;10.15;;;;;;;5.64;75.92;102532.09;5097526;28;20054;-55
2022/03/28 02:02:32;;;;;;;24.27;10.27;;;;;;;5.64;76.84;102540.00;5104372;28;20031;-56
2022/03/28 02:04:58;;;;;;;24.88;10.25;;;;;;;5.63;77.45;102532.22;5106535;28;20036;-56
2022/03/28 02:07:23;;;;;;;25.67;10.70;;;;;;;5.60;76.84;102524.47;5098981;28;20048;-56
2022/03/28 02:09:48;;;;;;;23.42;10.13;;;;;;;5.54;76.79;102524.81;5111718;28;20421;-56
2022/03/28 02:12:14;;;;;;;21.33;10.30;;;;;;;5.63;76.99;102529.56;5101268;28;20043;-56
2022/03/28 02:14:39;;;;;;;22.58;10.48;;;;;;;5.59;76.94;102526.28;5108743;28;20372;-56
2022/03/28 02:17:05;;;;;;;22.13;10.45;;;;;;;5.50;76.62;102527.63;5102379;28;20035;-56
2022/03/28 02:19:30;;;;;;;24.55;10.43;;;;;;;5.44;76.54;102525.34;5101866;28;20064;-57
2022/03/28 02:21:55;;;;;;;22.42;9.77;;;;;;;5.39;76.60;102522.13;5104032;28;20940;-57
2022/03/28 02:24:21;;;;;;;22.83;10.10;;;;;;;5.34;76.73;102519.72;5107908;28;20116;-56
2022/03/28 02:26:46;;;;;;;22.35;10.07;;;;;;;5.25;76.49;102515.81;5100385;28;20040;-56
2022/03/28 02:29:11;;;;;;;20.80;10.07;;;;;;;5.04;76.92;102511.75;5100936;28;20024;-56
2022/03/28 02:31:37;;;;;;;21.20;9.50;;;;;;;4.96;77.49;102502.50;5104658;28;20020;-56
2022/03/28 02:34:02;;;;;;;22.65;9.65;;;;;;;4.94;78.40;102507.00;5107236;28;20031;-55
2022/03/28 02:36:27;;;;;;;21.58;10.18;;;;;;;5.03;78.52;102500.38;5094723;28;20505;-56
2022/03/28 02:38:52;;;;;;;22.48;9.63;;;;;;;5.06;78.46;102494.09;5098753;28;20072;-56
2022/03/28 02:41:18;;;;;;;20.58;9.77;;;;;;;5.11;78.10;102498.19;5111077;28;20151;-56
2022/03/28 02:43:43;;;;;;;20.52;10.23;;;;;;;5.16;77.75;102494.44;5109758;28;20386;-56
2022/03/28 02:46:08;;;;;;;22.70;9.85;;;;;;;5.23;77.20;102491.41;5102738;28;20300;-56
2022/03/28 02:48:34;;;;;;;25.52;10.38;;;;;;;5.21;77.20;102485.38;5110282;28;20129;-56
2022/03/28 02:50:59;;;;;;;22.17;10.50;;;;;;;5.13;77.77;102479.69;5111943;28;20560;-56
2022/03/28 02:53:24;;;;;;;27.70;10.60;;;;;;;5.23;77.59;102475.63;5102877;28;20036;-56
2022/03/28 02:55:49;;;;;;;26.27;10.32;;;;;;;5.28;78.40;102474.53;5112030;28;20488;-56
2022/03/28 02:58:15;;;;;;;21.58;10.00;;;;;;;5.24;77.87;102479.94;5105561;28;20028;-56
2022/03/28 03:00:40;;;;;;;19.40;9.10;;;;;;;5.17;76.83;102481.22;5109097;28;20031;-56
2022/03/28 03:03:05;;;;;;;22.35;9.77;;;;;;;5.08;77.60;102476.50;5107303;28;22349;-56
2022/03/28 03:05:31;;;;;;;26.95;10.48;;;;;;;5.05;76.89;102468.75;5107397;28;20027;-56
2022/03/28 03:07:56;;;;;;;23.00;10.70;;;;;;;4.95;78.21;102466.63;5105230;28;20510;-56
2022/03/28 03:10:21;;;;;;;21.17;9.98;;;;;;;5.07;78.08;102472.13;5110164;28;20032;-57
2022/03/28 03:12:46;;;;;;;21.77;10.15;;;;;;;5.06;78.46;102467.81;5109748;28;20390;-57
2022/03/28 03:15:12;;;;;;;26.02;11.15;;;;;;;5.05;78.45;102466.13;5101865;28;20035;-56
2022/03/28 03:17:37;;;;;;;26.50;10.82;;;;;;;4.93;78.24;102462.41;5100720;28;20127;-56
2022/03/28 03:20:06;;;;;;;27.92;10.75;;;;;;;4.97;78.44;102462.13;5111180;28;20092;-56
2022/03/28 03:22:32;;;;;;;26.23;11.10;;;;;;;4.92;78.27;102451.03;5110236;28;20103;-56
2022/03/28 03:24:57;;;;;;;24.47;10.43;;;;;;;4.93;78.63;102457.97;5097010;28;20463;-56
2022/03/28 03:27:22;;;;;;;24.03;10.37;;;;;;;4.97;78.82;102464.78;5104794;28;20034;-55
2022/03/28 03:29:47;;;;;;;23.03;10.27;;;;;;;4.94;78.17;102459.66;5111861;28;20035;-56
2022/03/28 03:32:13;;;;;;;21.40;9.97;;;;;;;4.82;78.44;102455.09;5101030;28;20697;-56
2022/03/28 03:34:39;;;;;;;23.97;10.47;;;;;;;4.73;78.87;102455.59;5104039;28;20028;-56
2022/03/28 03:37:04;;;;;;;31.70;10.20;;;;;;;4.68;78.66;102451.44;5111039;28;20051;-56
2022/03/28 03:39:30;;;;;;;25.40;10.40;;;;;;;4.69;78.93;102444.41;5111541;28;20512;-56
2022/03/28 03:41:55;;;;;;;22.67;10.43;;;;;;;4.73;78.41;102440.66;5106953;28;20050;-56
2022/03/28 03:44:21;;;;;;;21.87;10.40;;;;;;;4.74;78.68;102446.78;5098117;28;20032;-56
2022/03/28 03:46:47;;;;;;;24.80;10.70;;;;;;;4.77;79.56;102447.47;5102685;28;20474;-56
2022/03/28 03:49:13;;;;;;;27.00;10.30;;;;;;;4.74;79.11;102447.59;5110522;28;20036;-57
2022/03/28 03:51:38;;;;;;;31.13;11.00;;;;;;;4.67;79.74;102433.97;5109901;28;20071;-56
2022/03/28 03:54:05;;;;;;;25.57;10.60;;;;;;;4.64;79.18;102434.13;5109246;28;20035;-56
2022/03/28 03:56:30;;;;;;;24.87;11.07;;;;;;;4.68;79.28;102427.78;5103743;28;20031;-56
2022/03/28 03:58:56;;;;;;;26.57;10.40;;;;;;;4.67;79.58;102431.34;5099468;28;20103;-56
2022/03/28 04:01:23;;;;;;;22.07;10.43;;;;;;;4.60;79.69;102423.88;5106312;28;20028;-56
2022/03/28 04:03:49;;;;;;;27.67;10.63;;;;;;;4.68;79.71;102422.53;5101653;28;20035;-56
2022/03/28 04:06:14;;;;;;;23.07;9.83;;;;;;;4.68;80.43;102421.66;5106305;28;20365;-55
2022/03/28 04:08:40;;;;;;;24.65;10.48;;;;;;;4.64;79.36;102423.59;5105159;28;20114;-56
2022/03/28 04:11:06;;;;;;;25.70;10.70;;;;;;;4.60;79.73;102418.63;5106097;28;20047;-54
2022/03/28 04:13:32;;;;;;;22.03;9.97;;;;;;;4.55;79.76;102426.75;5108683;27;20035;-56
2022/03/28 04:15:58;;;;;;;24.40;10.90;;;;;;;4.48;79.21;102410.47;5106933;28;20153;-56
2022/03/28 04:18:25;;;;;;;24.27;10.83;;;;;;;4.44;80.05;102412.41;5110226;28;20102;-57
2022/03/28 04:20:51;;;;;;;23.47;10.53;;;;;;;4.42;80.25;102418.66;5111743;28;20031;-56
2022/03/28 04:23:16;;;;;;;21.80;10.60;;;;;;;4.43;80.19;102410.72;5112343;28;20031;-57
2022/03/28 04:25:42;;;;;;;25.90;10.47;;;;;;;4.41;80.17;102404.72;5109569;28;20035;-56
2022/03/28 04:28:07;;;;;;;23.53;10.43;;;;;;;4.37;79.75;102413.66;5106536;28;20036;-55
2022/03/28 04:30:32;;;;;;;27.07;10.87;;;;;;;4.35;80.14;102415.53;5106740;28;20126;-56
2022/03/28 04:32:58;;;;;;;21.27;10.60;;;;;;;4.31;80.44;102414.00;5105246;27;20049;-56
2022/03/28 04:35:23;;;;;;;29.27;10.83;;;;;;;4.26;80.37;102413.38;5114276;28;20042;-54
2022/03/28 04:37:49;;;;;;;26.10;11.10;;;;;;;4.25;80.89;102424.81;5107093;28;20039;-54
2022/03/28 04:40:16;;;;;;;30.40;10.90;;;;;;;4.29;81.04;102416.69;5108937;28;20556;-54
2022/03/28 04:42:42;;;;;;;28.27;10.60;;;;;;;4.31;81.17;102408.75;5115062;28;20485;-55
2022/03/28 04:45:08;;;;;;;25.43;10.23;;;;;;;4.31;81.47;102414.81;5102302;28;20032;-56
2022/03/28 04:47:34;;;;;;;22.43;10.07;;;;;;;4.09;80.35;102414.28;5113335;28;20070;-56
2022/03/28 04:50:00;;;;;;;22.93;10.57;;;;;;;4.02;80.84;102413.75;5105428;28;20028;-57
2022/03/28 04:52:25;;;;;;;24.53;10.40;;;;;;;3.87;80.78;102411.00;5106149;28;20519;-55
2022/03/28 04:54:51;;;;;;;26.20;10.40;;;;;;;3.99;81.10;102401.63;5103279;28;20035;-56
2022/03/28 04:57:16;;;;;;;25.27;10.27;;;;;;;4.07;80.52;102411.72;5107760;28;20096;-56
2022/03/28 04:59:41;;;;;;;28.77;11.10;;;;;;;4.09;80.97;102414.28;5103552;28;20028;-55
2022/03/28 05:02:07;;;;;;;30.70;10.73;;;;;;;4.09;80.47;102409.84;5107871;28;20661;-57
2022/03/28 05:04:32;;;;;;;24.30;10.20;;;;;;;4.17;81.16;102420.84;5105195;28;20028;-57
2022/03/28 05:06:58;;;;;;;25.93;10.33;;;;;;;4.23;81.51;102421.41;5110030;28;20070;-56
2022/03/28 05:09:24;;;;;;;24.73;11.00;;;;;;;4.21;81.11;102423.28;5097743;28;20368;-56
2022/03/28 05:11:49;;;;;;;25.20;11.13;;;;;;;4.11;80.80;102418.53;5110888;28;20034;-55
2022/03/28 05:14:14;;;;;;;23.20;11.07;;;;;;;4.03;80.99;102411.03;5104951;28;20046;-53
2022/03/28 05:16:40;;;;;;;26.20;11.07;;;;;;;4.00;80.74;102410.34;5104134;28;20024;-56
2022/03/28 05:19:05;;;;;;;26.47;10.87;;;;;;;3.95;81.57;102407.13;5104498;28;20036;-56
2022/03/28 05:21:30;;;;;;;27.50;10.87;;;;;;;3.93;82.23;102411.56;5104212;28;20107;-56
2022/03/28 05:23:56;;;;;;;28.40;11.00;;;;;;;3.88;81.51;102407.44;5104103;28;20028;-56
2022/03/28 05:26:21;;;;;;;29.93;11.07;;;;;;;3.85;81.82;102412.81;5105424;28;20028;-54
2022/03/28 05:28:46;;;;;;;32.67;11.47;;;;;;;3.83;81.87;102419.06;5106303;28;20047;-56
2022/03/28 05:31:12;;;;;;;27.73;12.10;;;;;;;3.81;81.88;102419.19;5109836;28;20027;-55
2022/03/28 05:33:38;;;;;;;29.17;11.80;;;;;;;3.73;82.17;102414.31;5101506;28;20457;-55
2022/03/28 05:36:03;;;;;;;27.73;11.73;;;;;;;3.71;82.57;102410.06;5101129;28;20107;-56
2022/03/28 05:38:29;;;;;;;27.67;11.63;;;;;;;3.77;82.46;102412.38;5102124;28;20088;-55
2022/03/28 05:40:56;;;;;;;30.90;11.63;;;;;;;3.81;82.33;102407.81;5099397;28;20032;-55
2022/03/28 05:43:23;;;;;;;31.20;11.20;;;;;;;3.84;82.31;102412.91;5102514;28;20024;-54
2022/03/28 05:45:48;;;;;;;29.20;11.70;;;;;;;3.92;82.02;102407.25;5101096;28;20043;-55
2022/03/28 05:48:14;;;;;;;30.13;11.40;;;;;;;3.95;82.72;102401.88;5105516;28;20030;-55
2022/03/28 05:50:39;;;;;;;29.07;11.77;;;;;;;3.90;82.13;102400.31;5097830;28;20036;-54
2022/03/28 05:53:05;;;;;;;36.23;11.70;;;;;;;3.96;82.04;102395.69;5099528;28;21898;-53
2022/03/28 05:55:30;;;;;;;31.90;12.33;;;;;;;3.93;82.39;102387.94;5108218;28;20027;-56
2022/03/28 05:57:55;;;;;;;31.50;11.60;;;;;;;3.97;81.88;102392.13;5102382;28;20031;-56
2022/03/28 06:00:21;;;;;;;35.67;11.60;;;;;;;4.03;81.98;102395.28;5105422;28;20552;-55
2022/03/28 06:02:46;;;;;;;30.97;11.63;;;;;;;4.04;81.79;102391.72;5105773;28;20034;-57
2022/03/28 06:05:12;;;;;;;28.63;11.83;;;;;;;4.09;82.10;102394.09;5102286;28;20031;-56
2022/03/28 06:07:38;;;;;;;29.33;11.63;;;;;;;4.12;81.94;102386.09;5101294;28;20486;-57
2022/03/28 06:10:04;;;;;;;30.03;11.17;;;;;;;4.22;82.37;102388.22;5104389;28;20048;-57
2022/03/28 06:12:29;;;;;;;32.20;12.00;;;;;;;4.26;82.87;102392.38;5101881;28;20043;-57
2022/03/28 06:14:55;;;;;;;27.53;11.97;;;;;;;4.33;83.33;102396.38;5101176;28;20032;-57
2022/03/28 06:17:26;;;;;;;31.30;11.77;;;;;;;4.35;83.40;102394.53;5106088;28;20043;-56
2022/03/28 06:19:52;;;;;;;29.40;11.40;;;;;;;4.36;83.67;102390.97;5108441;28;20047;-56
2022/03/28 06:22:19;;;;;;;29.20;10.90;;;;;;;4.38;83.57;102389.09;5100866;28;20024;-56
2022/03/28 06:24:45;;;;;;;30.30;11.90;;;;;;;4.44;83.24;102388.75;5106793;28;20039;-55
2022/03/28 06:27:10;;;;;;;31.33;11.77;;;;;;;4.51;83.78;102388.44;5094037;28;20032;-53
2022/03/28 06:29:35;;;;;;;28.27;11.20;;;;;;;4.60;83.53;102390.56;5098128;28;20039;-55
2022/03/28 06:32:01;;;;;;;30.10;11.47;;;;;;;4.67;83.44;102389.28;5099585;28;20032;-55
2022/03/28 06:34:26;;;;;;;33.60;11.38;;;;;;;4.71;83.68;102385.56;5103027;28;20031;-55
2022/03/28 06:36:51;;;;;;;34.30;12.20;;;;;;;4.80;84.64;102388.63;5110881;28;20554;-56
2022/03/28 06:39:17;;;;;;;29.73;11.60;;;;;;;4.88;84.07;102385.56;5098715;28;20103;-55
2022/03/28 06:41:42;;;;;;;31.83;11.30;;;;;;;4.91;84.36;102394.13;5107267;28;20032;-56
2022/03/28 06:44:11;;;;;;;30.20;11.40;;;;;;;4.98;83.85;102392.84;5102377;28;20482;-55
2022/03/28 06:46:36;;;;;;;32.20;11.67;;;;;;;5.03;84.83;102394.38;5112064;28;20370;-55
2022/03/28 06:49:02;;;;;;;31.47;12.13;;;;;;;5.05;84.81;102392.50;5110477;28;20038;-55
2022/03/28 06:51:27;;;;;;;34.40;12.15;;;;;;;5.12;85.00;102399.09;5111609;28;20036;-55
2022/03/28 06:53:53;;;;;;;29.97;11.63;;;;;;;5.22;85.00;102388.91;5110020;28;20107;-54
2022/03/28 06:56:18;;;;;;;31.23;12.73;;;;;;;5.28;84.87;102387.72;5107573;28;20069;-55
2022/03/28 06:58:44;;;;;;;33.00;12.07;;;;;;;5.29;86.21;102381.50;5098896;28;20028;-57
2022/03/28 07:01:10;;;;;;;29.55;11.95;;;;;;;5.31;86.33;102377.88;5104829;28;20457;-57
2022/03/28 07:03:36;;;;;;;33.00;12.50;;;;;;;5.31;86.27;102377.00;5094805;28;20036;-58
2022/03/28 07:06:01;;;;;;;37.83;12.70;;;;;;;5.36;87.23;102372.31;5102255;28;20026;-58
2022/03/28 07:08:27;;;;;;;35.92;13.05;;;;;;;5.46;86.42;102376.13;5111187;28;20131;-59
2022/03/28 07:10:53;;;;;;;36.97;12.85;;;;;;;5.55;86.13;102373.88;5112623;28;20042;-58
2022/03/28 07:13:19;;;;;;;40.92;12.98;;;;;;;5.63;85.96;102382.19;5106134;28;20118;-58
2022/03/28 07:15:44;;;;;;;34.63;12.90;;;;;;;5.69;86.18;102370.44;5103325;28;20118;-58
2022/03/28 07:18:09;;;;;;;37.20;12.82;;;;;;;5.74;85.93;102369.25;5100705;28;20081;-57
2022/03/28 07:20:36;;;;;;;38.42;13.27;;;;;;;5.84;86.10;102363.41;5097804;28;20480;-58
2022/03/28 07:23:04;;;;;;;33.78;12.75;;;;;;;5.91;85.85;102360.31;5096596;28;20040;-58
2022/03/28 07:25:29;;;;;;;42.28;14.30;;;;;;;6.01;86.00;102359.75;5111382;28;20028;-58
2022/03/28 07:27:55;;;;;;;36.28;12.73;;;;;;;6.08;84.78;102355.84;5100232;28;20028;-58
2022/03/28 07:30:21;;;;;;;41.38;14.85;;;;;;;6.18;85.83;102354.31;5111273;28;20083;-58
2022/03/28 07:32:47;;;;;;;39.25;13.85;;;;;;;6.23;85.48;102354.06;5103055;28;20154;-58
2022/03/28 07:35:14;;;;;;;37.40;14.55;;;;;;;6.29;85.82;102353.66;5111906;28;20529;-58
2022/03/28 07:37:40;;;;;;;37.92;14.70;;;;;;;6.35;84.48;102351.59;5108450;28;20028;-58
2022/03/28 07:40:07;;;;;;;40.22;15.35;;;;;;;6.42;85.31;102353.72;5108215;28;20039;-58
2022/03/28 07:42:34;;;;;;;41.70;14.68;;;;;;;6.48;84.87;102349.88;5113393;28;20050;-59
2022/03/28 07:45:00;;;;;;;38.25;14.90;;;;;;;6.57;85.38;102341.38;5103307;28;20039;-59
2022/03/28 07:47:26;;;;;;;37.88;15.35;;;;;;;6.64;84.23;102335.69;5103618;28;20032;-58
2022/03/28 07:49:52;;;;;;;38.13;15.07;;;;;;;6.71;84.97;102327.31;5114305;28;20092;-58
2022/03/28 07:52:18;;;;;;;44.42;16.17;;;;;;;6.81;84.26;102332.81;5112042;28;20090;-58
2022/03/28 07:54:44;;;;;;;44.20;17.17;;;;;;;6.85;83.72;102329.06;5115382;28;20020;-58
2022/03/28 07:57:09;;;;;;;45.28;17.30;;;;;;;6.94;84.10;102332.03;5109421;28;20031;-59
2022/03/28 07:59:35;;;;;;;39.97;16.80;;;;;;;7.03;83.79;102336.69;5114353;28;20075;-56
2022/03/28 08:02:01;;;;;;;39.90;16.83;;;;;;;7.10;83.64;102337.97;5106447;28;20012;-55
2022/03/28 08:04:26;;;;;;;41.20;17.08;;;;;;;7.15;83.00;102329.75;5105221;28;20024;-56
2022/03/28 08:06:51;;;;;;;41.25;17.15;;;;;;;7.21;83.51;102331.97;5103878;28;20414;-56
2022/03/28 08:09:17;;;;;;;38.50;16.70;;;;;;;7.31;83.69;102334.88;5104212;28;20111;-56
2022/03/28 08:11:43;;;;;;;44.47;17.05;;;;;;;7.36;82.77;102338.03;5103829;28;20031;-56
2022/03/28 08:14:08;;;;;;;38.13;16.85;;;;;;;7.45;82.97;102333.09;5105188;28;20055;-55
2022/03/28 08:16:34;;;;;;;41.15;17.10;;;;;;;7.51;81.89;102324.75;5104888;28;20375;-55
2022/03/28 08:19:00;;;;;;;40.03;17.65;;;;;;;7.56;81.58;102322.66;5106798;28;20527;-57
2022/03/28 08:21:25;;;;;;;41.80;17.95;;;;;;;7.66;82.17;102321.06;5105856;28;20031;-56
2022/03/28 08:23:50;;;;;;;40.88;16.98;;;;;;;7.72;82.17;102311.88;5111528;28;20035;-56
2022/03/28 08:26:16;;;;;;;37.30;16.98;;;;;;;7.82;81.86;102314.72;5107873;28;20147;-57
2022/03/28 08:28:42;;;;;;;41.83;19.23;;;;;;;7.84;82.58;102310.16;5101484;28;20111;-57
2022/03/28 08:31:08;;;;;;;40.38;18.55;;;;;;;7.93;81.57;102309.53;5107322;28;20036;-56
2022/03/28 08:33:33;;;;;;;39.40;19.55;;;;;;;7.96;81.77;102304.97;5112388;28;20031;-56
2022/03/28 08:35:59;;;;;;;40.72;18.92;;;;;;;8.04;80.87;102310.59;5101360;28;20378;-57
2022/03/28 08:38:24;;;;;;;42.63;18.90;;;;;;;8.21;81.54;102302.28;5110462;28;20035;-56
2022/03/28 08:40:49;;;;;;;39.15;18.88;;;;;;;8.28;80.25;102301.84;5114800;28;20110;-56
2022/03/28 08:43:20;;;;;;;39.88;19.70;;;;;;;8.35;79.51;102303.94;5106154;28;20032;-56
2022/03/28 08:45:48;;;;;;;46.15;20.45;;;;;;;8.37;79.76;102293.25;5105564;28;20032;-56
2022/03/28 08:48:14;;;;;;;43.67;20.48;;;;;;;8.47;80.11;102298.72;5105900;28;20032;-56
2022/03/28 08:50:46;;;;;;;44.55;20.30;;;;;;;8.50;79.10;102297.66;5110948;28;20039;-56
2022/03/28 08:53:13;;;;;;;46.83;19.83;;;;;;;8.56;79.39;102299.88;5103413;28;20026;-56
2022/03/28 08:55:40;;;;;;;42.28;20.20;;;;;;;8.66;80.84;102290.31;5100397;28;20020;-57
2022/03/28 08:58:06;;;;;;;39.10;19.92;;;;;;;8.79;79.48;102294.72;5106977;28;20034;-56
2022/03/28 09:00:31;;;;;;;44.90;21.25;;;;;;;8.89;79.89;102285.13;5108978;28;20381;-57
2022/03/28 09:02:58;;;;;;;47.85;23.27;;;;;;;8.93;78.03;102297.16;5111637;28;20030;-56
2022/03/28 09:05:34;;;;;;;44.30;22.90;;;;;;;8.96;77.86;102291.66;5104960;28;20520;-56
2022/03/28 09:08:00;;;;;;;42.90;21.60;;;;;;;9.07;77.39;102287.38;5106126;28;20134;-55
2022/03/28 09:10:34;;;;;;;47.33;21.90;;;;;;;9.09;77.86;102286.25;5113033;28;20110;-56
2022/03/28 09:13:07;;;;;;;42.10;21.15;;;;;;;9.16;77.94;102284.00;5099235;28;20123;-56
2022/03/28 09:15:49;;;;;;;42.83;20.58;;;;;;;9.32;77.93;102281.03;5101386;28;20036;-56
2022/03/28 09:18:25;;;;;;;40.80;20.55;;;;;;;9.39;77.76;102286.72;5113832;28;20024;-56
2022/03/28 09:20:53;;;;;;;43.78;19.55;;;;;;;9.46;77.45;102277.31;5094559;28;20031;-56
2022/03/28 09:23:39;;;;;;;42.25;21.13;;;;;;;9.53;77.11;102283.81;5110434;28;20020;-56
2022/03/28 09:26:07;;;;;;;43.97;20.00;;;;;;;9.58;76.58;102274.69;5112565;28;20546;-58
2022/03/28 09:28:47;;;;;;;42.88;20.17;;;;;;;9.71;76.71;102280.72;5104727;28;20028;-56
2022/03/28 09:31:16;;;;;;;41.95;20.67;;;;;;;9.92;78.73;102278.16;5106287;28;20136;-56
2022/03/28 09:33:56;;;;;;;48.40;20.23;;;;;;;10.08;77.51;102277.78;5106136;28;20123;-56
2022/03/28 09:36:41;;;;;;;36.47;19.60;;;;;;;10.17;75.57;102276.22;5101854;28;20032;-56
2022/03/28 09:39:09;;;;;;;38.45;20.52;;;;;;;10.15;73.87;102264.03;5101641;28;20047;-56
2022/03/28 09:41:35;;;;;;;42.90;22.10;;;;;;;10.40;73.87;102270.03;5112915;28;20496;-59
2022/03/28 09:44:01;;;;;;;40.92;22.27;;;;;;;10.41;73.47;102266.41;5110524;28;20047;-58
2022/03/28 09:46:31;;;;;;;45.00;22.08;;;;;;;10.44;73.31;102255.56;5101960;28;20032;-58
2022/03/28 09:48:59;;;;;;;43.20;22.25;;;;;;;10.58;74.38;102271.22;5099944;28;20542;-61
2022/03/28 09:51:29;;;;;;;50.33;24.10;;;;;;;10.74;72.67;102261.97;5111298;28;20042;-58
2022/03/28 09:53:55;;;;;;;49.88;23.85;;;;;;;10.84;72.14;102257.59;5106436;28;20077;-58
2022/03/28 09:56:21;;;;;;;42.60;23.25;;;;;;;10.94;69.99;102259.44;5101027;28;20454;-62
2022/03/28 09:58:47;;;;;;;40.50;23.50;;;;;;;10.96;70.96;102249.56;5111687;28;20050;-59
2022/03/28 10:01:14;;;;;;;44.40;25.00;;;;;;;11.08;71.10;102250.34;5100465;28;20024;-59
2022/03/28 10:03:40;;;;;;;44.75;24.70;;;;;;;11.10;68.24;102251.88;5099777;28;20096;-59
2022/03/28 10:06:07;;;;;;;47.65;24.55;;;;;;;11.19;68.18;102249.44;5113834;28;20035;-59
2022/03/28 10:08:34;;;;;;;44.88;23.58;;;;;;;11.14;67.66;102248.00;5109444;28;20036;-59
2022/03/28 10:11:00;;;;;;;44.28;25.00;;;;;;;11.21;68.30;102248.34;5097534;28;20039;-59
2022/03/28 10:13:26;;;;;;;45.47;24.23;;;;;;;11.34;68.93;102248.09;5109640;28;20028;-58
2022/03/28 10:15:53;;;;;;;45.05;24.75;;;;;;;11.37;67.91;102241.69;5105401;28;20027;-59
2022/03/28 10:18:18;;;;;;;44.65;24.40;;;;;;;11.48;67.14;102238.97;5106423;28;20032;-58
2022/03/28 10:20:46;;;;;;;41.83;23.02;;;;;;;11.57;67.22;102242.63;5111594;28;20038;-58
2022/03/28 10:23:14;;;;;;;40.72;22.10;;;;;;;11.62;67.59;102234.25;5099805;28;20027;-59
2022/03/28 10:25:41;;;;;;;40.45;22.20;;;;;;;11.69;66.80;102230.94;5098504;28;20043;-59
2022/03/28 10:28:08;;;;;;;42.17;23.02;;;;;;;11.80;68.16;102221.19;5105359;28;20103;-57
2022/03/28 10:30:33;;;;;;;39.67;22.17;;;;;;;11.89;67.76;102220.34;5095487;28;20047;-57
2022/03/28 10:33:16;;;;;;;41.20;22.42;;;;;;;12.00;66.10;102221.22;5109466;28;20031;-57
2022/03/28 10:35:58;;;;;;;38.83;21.45;;;;;;;12.19;64.82;102220.44;5108523;28;20482;-58
2022/03/28 10:38:24;;;;;;;42.00;22.88;;;;;;;12.19;64.02;102205.31;5108376;28;20023;-57
2022/03/28 10:40:57;;;;;;;38.72;22.40;;;;;;;12.19;63.32;102205.31;5103491;28;20027;-58
2022/03/28 10:43:30;;;;;;;36.78;21.08;;;;;;;12.23;63.07;102204.06;5103750;28;20077;-58
2022/03/28 10:46:01;;;;;;;41.63;22.58;;;;;;;12.24;64.29;102181.81;5105329;28;20112;-58
2022/03/28 10:48:39;;;;;;;41.38;22.85;;;;;;;12.34;64.50;102186.31;5105898;28;20036;-61
2022/03/28 10:51:07;;;;;;;39.33;21.60;;;;;;;12.42;64.45;102189.09;5095965;28;20543;-58
2022/03/28 10:53:40;;;;;;;39.83;21.63;;;;;;;12.57;65.10;102186.00;5108767;28;20039;-58
2022/03/28 10:56:38;;;;;;;39.88;22.10;;;;;;;12.64;64.97;102187.13;5103474;28;20377;-58
2022/03/28 10:59:07;;;;;;;38.13;23.20;;;;;;;12.76;58.94;102186.00;5101765;28;20031;-56
2022/03/28 11:01:35;;;;;;;38.35;22.50;;;;;;;12.71;59.69;102177.59;5108845;28;20028;-57
2022/03/28 11:04:08;;;;;;;38.35;23.48;;;;;;;12.87;60.25;102184.13;5108203;28;20037;-58
2022/03/28 11:07:03;;;;;;;38.83;22.20;;;;;;;12.97;60.95;102179.63;5110609;28;20625;-58
2022/03/28 11:09:40;;;;;;;37.30;21.67;;;;;;;13.16;58.31;102183.22;5108496;28;20030;-58
2022/03/28 11:12:16;;;;;;;36.67;22.23;;;;;;;13.14;57.89;102177.19;5105119;28;20504;-58
2022/03/28 11:14:51;;;;;;;35.92;21.75;;;;;;;13.15;57.01;102168.22;5101720;28;20104;-58